sensor_id;sensor_type;location;lat;lon;timestamp;temperature;humidity
39665;DHT22;26679;50.872;4.332;2022-08-20T00:00:39;19.70;99.90
39665;DHT22;26679;50.872;4.332;2022-08-20T00:03:09;19.60;99.90
39665;DHT22;26679;50.872;4.332;2022-08-20T00:05:40;19.60;99.90
39665;DHT22;26679;50.872;4.332;2022-08-20T00:08:06;19.50;99.90
39665;DHT22;26679;50.872;4.332;2022-08-20T00:10:33;19.50;99.90
39665;DHT22;26679;50.872;4.332;2022-08-20T00:12:59;19.50;99.90
39665;DHT22;26679;50.872;4.332;2022-08-20T00:15:27;19.50;99.90
39665;DHT22;26679;50.872;4.332;2022-08-20T00:17:54;19.50;99.90
39665;DHT22;26679;50.872;4.332;2022-08-20T00:20:20;19.50;99.90
39665;DHT22;26679;50.872;4.332;2022-08-20T00:22:46;19.50;99.90
39665;DHT22;26679;50.872;4.332;2022-08-20T00:25:12;19.50;99.90
39665;DHT22;26679;50.872;4.332;2022-08-20T00:27:37;19.50;99.90
39665;DHT22;26679;50.872;4.332;2022-08-20T00:30:05;19.40;99.90
39665;DHT22;26679;50.872;4.332;2022-08-20T00:32:30;18.80;99.90
39665;DHT22;26679;50.872;4.332;2022-08-20T00:34:56;19.30;99.90
39665;DHT22;26679;50.872;4.332;2022-08-20T00:37:21;19.30;99.90
39665;DHT22;26679;50.872;4.332;2022-08-20T00:39:47;19.20;99.90
39665;DHT22;26679;50.872;4.332;2022-08-20T00:42:12;19.20;99.90
39665;DHT22;26679;50.872;4.332;2022-08-20T00:44:43;19.20;99.90
39665;DHT22;26679;50.872;4.332;2022-08-20T00:47:08;19.10;99.90
39665;DHT22;26679;50.872;4.332;2022-08-20T00:49:34;19.10;99.90
39665;DHT22;26679;50.872;4.332;2022-08-20T00:52:11;19.20;99.90
39665;DHT22;26679;50.872;4.332;2022-08-20T00:54:39;19.20;99.90
39665;DHT22;26679;50.872;4.332;2022-08-20T00:57:06;19.10;99.90
39665;DHT22;26679;50.872;4.332;2022-08-20T00:59:34;19.20;99.90
39665;DHT22;26679;50.872;4.332;2022-08-20T01:02:01;19.10;99.90
39665;DHT22;26679;50.872;4.332;2022-08-20T01:04:29;19.10;99.90
39665;DHT22;26679;50.872;4.332;2022-08-20T01:06:55;19.10;99.90
39665;DHT22;26679;50.872;4.332;2022-08-20T01:09:21;19.00;99.90
39665;DHT22;26679;50.872;4.332;2022-08-20T01:11:47;19.00;99.90
39665;DHT22;26679;50.872;4.332;2022-08-20T01:14:13;18.90;99.90
39665;DHT22;26679;50.872;4.332;2022-08-20T01:16:50;19.00;99.90
39665;DHT22;26679;50.872;4.332;2022-08-20T01:19:20;18.90;99.90
39665;DHT22;26679;50.872;4.332;2022-08-20T01:21:47;18.90;99.90
39665;DHT22;26679;50.872;4.332;2022-08-20T01:24:15;18.90;99.90
39665;DHT22;26679;50.872;4.332;2022-08-20T01:26:42;19.00;99.90
39665;DHT22;26679;50.872;4.332;2022-08-20T01:29:09;18.90;99.90
39665;DHT22;26679;50.872;4.332;2022-08-20T01:31:36;19.10;99.90
39665;DHT22;26679;50.872;4.332;2022-08-20T01:34:03;19.00;99.90
39665;DHT22;26679;50.872;4.332;2022-08-20T01:36:37;19.00;99.90
39665;DHT22;26679;50.872;4.332;2022-08-20T01:39:03;18.90;99.90
39665;DHT22;26679;50.872;4.332;2022-08-20T01:41:38;18.90;99.90
39665;DHT22;26679;50.872;4.332;2022-08-20T01:44:06;18.90;99.90
39665;DHT22;26679;50.872;4.332;2022-08-20T01:46:34;18.80;99.90
39665;DHT22;26679;50.872;4.332;2022-08-20T01:49:05;18.70;99.90
39665;DHT22;26679;50.872;4.332;2022-08-20T01:51:31;18.60;99.90
39665;DHT22;26679;50.872;4.332;2022-08-20T01:53:58;18.60;99.90
39665;DHT22;26679;50.872;4.332;2022-08-20T01:56:28;18.60;99.90
39665;DHT22;26679;50.872;4.332;2022-08-20T01:58:54;18.50;99.90
39665;DHT22;26679;50.872;4.332;2022-08-20T02:01:22;18.40;99.90
39665;DHT22;26679;50.872;4.332;2022-08-20T02:03:47;18.30;99.90
39665;DHT22;26679;50.872;4.332;2022-08-20T02:06:13;18.30;99.90
39665;DHT22;26679;50.872;4.332;2022-08-20T02:08:39;18.20;99.90
39665;DHT22;26679;50.872;4.332;2022-08-20T02:11:04;18.30;99.90
39665;DHT22;26679;50.872;4.332;2022-08-20T02:13:30;18.20;99.90
39665;DHT22;26679;50.872;4.332;2022-08-20T02:15:56;18.20;99.90
39665;DHT22;26679;50.872;4.332;2022-08-20T02:18:22;18.20;99.90
39665;DHT22;26679;50.872;4.332;2022-08-20T02:20:48;18.20;99.90
39665;DHT22;26679;50.872;4.332;2022-08-20T02:23:14;18.20;99.90
39665;DHT22;26679;50.872;4.332;2022-08-20T02:25:41;18.20;99.90
39665;DHT22;26679;50.872;4.332;2022-08-20T02:28:11;18.10;99.90
39665;DHT22;26679;50.872;4.332;2022-08-20T02:30:40;18.10;99.90
39665;DHT22;26679;50.872;4.332;2022-08-20T02:33:06;18.10;99.90
39665;DHT22;26679;50.872;4.332;2022-08-20T02:35:33;18.10;99.90
39665;DHT22;26679;50.872;4.332;2022-08-20T02:37:59;18.10;99.90
39665;DHT22;26679;50.872;4.332;2022-08-20T02:40:25;18.10;99.90
39665;DHT22;26679;50.872;4.332;2022-08-20T02:42:51;18.10;99.90
39665;DHT22;26679;50.872;4.332;2022-08-20T02:45:17;18.10;99.90
39665;DHT22;26679;50.872;4.332;2022-08-20T02:47:44;18.00;99.90
39665;DHT22;26679;50.872;4.332;2022-08-20T02:50:11;18.00;99.90
39665;DHT22;26679;50.872;4.332;2022-08-20T02:52:36;18.00;99.90
39665;DHT22;26679;50.872;4.332;2022-08-20T02:55:02;18.00;99.90
39665;DHT22;26679;50.872;4.332;2022-08-20T02:57:28;17.90;99.90
39665;DHT22;26679;50.872;4.332;2022-08-20T02:59:54;17.90;99.90
39665;DHT22;26679;50.872;4.332;2022-08-20T03:02:20;17.90;99.90
39665;DHT22;26679;50.872;4.332;2022-08-20T03:04:46;17.80;99.90
39665;DHT22;26679;50.872;4.332;2022-08-20T03:07:11;17.70;99.90
39665;DHT22;26679;50.872;4.332;2022-08-20T03:09:38;17.70;99.90
39665;DHT22;26679;50.872;4.332;2022-08-20T03:12:04;17.60;99.90
39665;DHT22;26679;50.872;4.332;2022-08-20T03:14:31;17.60;99.90
39665;DHT22;26679;50.872;4.332;2022-08-20T03:16:57;17.50;99.90
39665;DHT22;26679;50.872;4.332;2022-08-20T03:19:23;17.60;99.90
39665;DHT22;26679;50.872;4.332;2022-08-20T03:21:49;17.60;99.90
39665;DHT22;26679;50.872;4.332;2022-08-20T03:24:15;17.70;99.90
39665;DHT22;26679;50.872;4.332;2022-08-20T03:26:40;17.80;99.90
39665;DHT22;26679;50.872;4.332;2022-08-20T03:29:06;17.80;99.90
39665;DHT22;26679;50.872;4.332;2022-08-20T03:31:31;17.70;99.90
39665;DHT22;26679;50.872;4.332;2022-08-20T03:33:57;17.70;99.90
39665;DHT22;26679;50.872;4.332;2022-08-20T03:36:23;17.70;99.90
39665;DHT22;26679;50.872;4.332;2022-08-20T03:38:49;17.70;99.90
39665;DHT22;26679;50.872;4.332;2022-08-20T03:41:15;17.70;99.90
39665;DHT22;26679;50.872;4.332;2022-08-20T03:43:40;17.60;99.90
39665;DHT22;26679;50.872;4.332;2022-08-20T03:46:06;17.60;99.90
39665;DHT22;26679;50.872;4.332;2022-08-20T03:48:31;17.50;99.90
39665;DHT22;26679;50.872;4.332;2022-08-20T03:50:57;17.50;99.90
39665;DHT22;26679;50.872;4.332;2022-08-20T03:53:25;17.50;99.90
39665;DHT22;26679;50.872;4.332;2022-08-20T03:55:53;17.40;99.90
39665;DHT22;26679;50.872;4.332;2022-08-20T03:58:20;17.50;99.90
39665;DHT22;26679;50.872;4.332;2022-08-20T04:00:47;17.50;99.90
39665;DHT22;26679;50.872;4.332;2022-08-20T04:03:13;17.50;99.90
39665;DHT22;26679;50.872;4.332;2022-08-20T04:05:38;17.60;99.90
39665;DHT22;26679;50.872;4.332;2022-08-20T04:10:57;17.60;99.90
39665;DHT22;26679;50.872;4.332;2022-08-20T04:13:24;17.40;99.90
39665;DHT22;26679;50.872;4.332;2022-08-20T04:15:51;17.30;99.90
39665;DHT22;26679;50.872;4.332;2022-08-20T04:18:20;17.30;99.90
39665;DHT22;26679;50.872;4.332;2022-08-20T04:20:48;17.30;99.90
39665;DHT22;26679;50.872;4.332;2022-08-20T04:23:14;17.30;99.90
39665;DHT22;26679;50.872;4.332;2022-08-20T04:25:40;17.30;99.90
39665;DHT22;26679;50.872;4.332;2022-08-20T04:28:06;17.30;99.90
39665;DHT22;26679;50.872;4.332;2022-08-20T04:30:32;17.40;99.90
39665;DHT22;26679;50.872;4.332;2022-08-20T04:32:58;17.30;99.90
39665;DHT22;26679;50.872;4.332;2022-08-20T04:35:27;17.20;99.90
39665;DHT22;26679;50.872;4.332;2022-08-20T04:37:56;17.20;99.90
39665;DHT22;26679;50.872;4.332;2022-08-20T04:40:22;17.20;99.90
39665;DHT22;26679;50.872;4.332;2022-08-20T04:42:59;17.20;99.90
39665;DHT22;26679;50.872;4.332;2022-08-20T04:45:25;17.30;99.90
39665;DHT22;26679;50.872;4.332;2022-08-20T04:47:51;17.30;99.90
39665;DHT22;26679;50.872;4.332;2022-08-20T04:50:17;17.20;99.90
39665;DHT22;26679;50.872;4.332;2022-08-20T04:52:43;17.20;99.90
39665;DHT22;26679;50.872;4.332;2022-08-20T04:55:09;17.20;99.90
39665;DHT22;26679;50.872;4.332;2022-08-20T04:57:34;17.10;99.90
39665;DHT22;26679;50.872;4.332;2022-08-20T05:00:07;17.20;99.90
39665;DHT22;26679;50.872;4.332;2022-08-20T05:02:33;17.10;99.90
39665;DHT22;26679;50.872;4.332;2022-08-20T05:05:00;17.10;99.90
39665;DHT22;26679;50.872;4.332;2022-08-20T05:07:25;17.10;99.90
39665;DHT22;26679;50.872;4.332;2022-08-20T05:09:51;17.00;99.90
39665;DHT22;26679;50.872;4.332;2022-08-20T05:12:17;17.00;99.90
39665;DHT22;26679;50.872;4.332;2022-08-20T05:14:44;16.90;99.90
39665;DHT22;26679;50.872;4.332;2022-08-20T05:17:09;17.00;99.90
39665;DHT22;26679;50.872;4.332;2022-08-20T05:19:39;17.00;99.90
39665;DHT22;26679;50.872;4.332;2022-08-20T05:22:04;17.00;99.90
39665;DHT22;26679;50.872;4.332;2022-08-20T05:24:30;17.00;99.90
39665;DHT22;26679;50.872;4.332;2022-08-20T05:26:55;17.00;99.90
39665;DHT22;26679;50.872;4.332;2022-08-20T05:29:21;17.10;99.90
39665;DHT22;26679;50.872;4.332;2022-08-20T05:31:48;17.10;99.90
39665;DHT22;26679;50.872;4.332;2022-08-20T05:34:13;17.10;99.90
39665;DHT22;26679;50.872;4.332;2022-08-20T05:36:41;17.10;99.90
39665;DHT22;26679;50.872;4.332;2022-08-20T05:39:07;17.10;99.90
39665;DHT22;26679;50.872;4.332;2022-08-20T05:41:33;17.10;99.90
39665;DHT22;26679;50.872;4.332;2022-08-20T05:43:58;16.90;99.90
39665;DHT22;26679;50.872;4.332;2022-08-20T05:46:30;16.80;99.90
39665;DHT22;26679;50.872;4.332;2022-08-20T05:48:56;16.90;99.90
39665;DHT22;26679;50.872;4.332;2022-08-20T05:51:21;16.80;99.90
39665;DHT22;26679;50.872;4.332;2022-08-20T05:53:50;16.90;99.90
39665;DHT22;26679;50.872;4.332;2022-08-20T05:56:16;16.90;99.90
39665;DHT22;26679;50.872;4.332;2022-08-20T05:58:42;16.90;99.90
39665;DHT22;26679;50.872;4.332;2022-08-20T06:01:07;16.90;99.90
39665;DHT22;26679;50.872;4.332;2022-08-20T06:03:33;16.90;99.90
39665;DHT22;26679;50.872;4.332;2022-08-20T06:06:09;16.90;99.90
39665;DHT22;26679;50.872;4.332;2022-08-20T06:08:35;17.00;99.90
39665;DHT22;26679;50.872;4.332;2022-08-20T06:11:01;17.00;99.90
39665;DHT22;26679;50.872;4.332;2022-08-20T06:13:26;17.00;99.90
39665;DHT22;26679;50.872;4.332;2022-08-20T06:15:53;17.10;99.90
39665;DHT22;26679;50.872;4.332;2022-08-20T06:18:19;17.20;99.90
39665;DHT22;26679;50.872;4.332;2022-08-20T06:20:45;17.20;99.90
39665;DHT22;26679;50.872;4.332;2022-08-20T06:23:10;17.20;99.90
39665;DHT22;26679;50.872;4.332;2022-08-20T06:25:36;17.30;99.90
39665;DHT22;26679;50.872;4.332;2022-08-20T06:28:03;17.30;99.90
39665;DHT22;26679;50.872;4.332;2022-08-20T06:30:29;17.40;99.90
39665;DHT22;26679;50.872;4.332;2022-08-20T06:32:54;17.40;99.90
39665;DHT22;26679;50.872;4.332;2022-08-20T06:35:20;17.40;99.90
39665;DHT22;26679;50.872;4.332;2022-08-20T06:37:45;17.40;99.90
39665;DHT22;26679;50.872;4.332;2022-08-20T06:40:15;17.50;99.90
39665;DHT22;26679;50.872;4.332;2022-08-20T06:42:42;17.60;99.90
39665;DHT22;26679;50.872;4.332;2022-08-20T06:45:11;17.60;99.90
39665;DHT22;26679;50.872;4.332;2022-08-20T06:47:40;17.60;99.90
39665;DHT22;26679;50.872;4.332;2022-08-20T06:50:10;17.70;99.90
39665;DHT22;26679;50.872;4.332;2022-08-20T06:52:38;17.70;99.90
39665;DHT22;26679;50.872;4.332;2022-08-20T06:55:04;17.70;99.90
39665;DHT22;26679;50.872;4.332;2022-08-20T06:57:30;17.80;99.90
39665;DHT22;26679;50.872;4.332;2022-08-20T06:59:56;17.90;99.90
39665;DHT22;26679;50.872;4.332;2022-08-20T07:02:22;17.90;99.90
39665;DHT22;26679;50.872;4.332;2022-08-20T07:04:49;18.00;99.90
39665;DHT22;26679;50.872;4.332;2022-08-20T07:07:17;18.10;99.90
39665;DHT22;26679;50.872;4.332;2022-08-20T07:09:44;18.20;99.90
39665;DHT22;26679;50.872;4.332;2022-08-20T07:12:11;18.30;99.90
39665;DHT22;26679;50.872;4.332;2022-08-20T07:14:37;18.40;99.90
39665;DHT22;26679;50.872;4.332;2022-08-20T07:17:02;18.60;99.90
39665;DHT22;26679;50.872;4.332;2022-08-20T07:19:28;18.60;99.90
39665;DHT22;26679;50.872;4.332;2022-08-20T07:21:53;18.60;99.90
39665;DHT22;26679;50.872;4.332;2022-08-20T07:24:19;18.70;99.90
39665;DHT22;26679;50.872;4.332;2022-08-20T07:26:44;18.60;99.90
39665;DHT22;26679;50.872;4.332;2022-08-20T07:29:10;18.60;99.90
39665;DHT22;26679;50.872;4.332;2022-08-20T07:31:35;18.70;99.90
39665;DHT22;26679;50.872;4.332;2022-08-20T07:34:12;18.80;99.90
39665;DHT22;26679;50.872;4.332;2022-08-20T07:36:39;19.00;99.90
39665;DHT22;26679;50.872;4.332;2022-08-20T07:39:05;18.90;99.90
39665;DHT22;26679;50.872;4.332;2022-08-20T07:41:31;19.00;99.90
39665;DHT22;26679;50.872;4.332;2022-08-20T07:43:56;18.90;99.90
39665;DHT22;26679;50.872;4.332;2022-08-20T07:46:22;18.90;99.90
39665;DHT22;26679;50.872;4.332;2022-08-20T07:48:48;18.90;99.90
39665;DHT22;26679;50.872;4.332;2022-08-20T07:51:15;19.00;99.90
39665;DHT22;26679;50.872;4.332;2022-08-20T07:53:42;19.10;99.90
39665;DHT22;26679;50.872;4.332;2022-08-20T07:56:08;19.20;99.90
39665;DHT22;26679;50.872;4.332;2022-08-20T07:58:35;19.30;99.90
39665;DHT22;26679;50.872;4.332;2022-08-20T08:01:00;19.30;99.90
39665;DHT22;26679;50.872;4.332;2022-08-20T08:03:26;19.40;99.90
39665;DHT22;26679;50.872;4.332;2022-08-20T08:05:53;19.50;99.90
39665;DHT22;26679;50.872;4.332;2022-08-20T08:08:21;19.50;99.90
39665;DHT22;26679;50.872;4.332;2022-08-20T08:10:47;19.60;99.90
39665;DHT22;26679;50.872;4.332;2022-08-20T08:13:14;19.70;99.90
39665;DHT22;26679;50.872;4.332;2022-08-20T08:15:42;19.80;99.90
39665;DHT22;26679;50.872;4.332;2022-08-20T08:18:16;19.90;99.90
39665;DHT22;26679;50.872;4.332;2022-08-20T08:20:42;20.00;99.90
39665;DHT22;26679;50.872;4.332;2022-08-20T08:23:09;20.00;99.90
39665;DHT22;26679;50.872;4.332;2022-08-20T08:25:39;20.00;99.90
39665;DHT22;26679;50.872;4.332;2022-08-20T08:28:06;20.00;99.90
39665;DHT22;26679;50.872;4.332;2022-08-20T08:30:33;20.00;99.90
39665;DHT22;26679;50.872;4.332;2022-08-20T08:32:58;19.90;99.90
39665;DHT22;26679;50.872;4.332;2022-08-20T08:35:37;20.00;99.90
39665;DHT22;26679;50.872;4.332;2022-08-20T08:38:02;20.10;99.90
39665;DHT22;26679;50.872;4.332;2022-08-20T08:40:28;20.10;99.90
39665;DHT22;26679;50.872;4.332;2022-08-20T08:42:54;20.40;99.90
39665;DHT22;26679;50.872;4.332;2022-08-20T08:45:23;20.50;99.90
39665;DHT22;26679;50.872;4.332;2022-08-20T08:47:49;20.60;99.90
39665;DHT22;26679;50.872;4.332;2022-08-20T08:50:19;20.70;99.90
39665;DHT22;26679;50.872;4.332;2022-08-20T08:52:46;20.90;99.90
39665;DHT22;26679;50.872;4.332;2022-08-20T08:55:15;21.20;99.90
39665;DHT22;26679;50.872;4.332;2022-08-20T08:57:45;21.40;99.90
39665;DHT22;26679;50.872;4.332;2022-08-20T09:00:12;21.60;99.90
39665;DHT22;26679;50.872;4.332;2022-08-20T09:02:39;21.70;99.90
39665;DHT22;26679;50.872;4.332;2022-08-20T09:05:11;21.90;99.90
39665;DHT22;26679;50.872;4.332;2022-08-20T09:07:37;22.10;99.90
39665;DHT22;26679;50.872;4.332;2022-08-20T09:10:06;22.40;99.90
39665;DHT22;26679;50.872;4.332;2022-08-20T09:12:32;22.40;99.90
39665;DHT22;26679;50.872;4.332;2022-08-20T09:14:58;22.30;99.90
39665;DHT22;26679;50.872;4.332;2022-08-20T09:17:23;22.40;99.90
39665;DHT22;26679;50.872;4.332;2022-08-20T09:19:49;22.60;99.90
39665;DHT22;26679;50.872;4.332;2022-08-20T09:22:17;22.80;99.90
39665;DHT22;26679;50.872;4.332;2022-08-20T09:24:43;23.80;99.90
39665;DHT22;26679;50.872;4.332;2022-08-20T09:27:09;25.10;99.90
39665;DHT22;26679;50.872;4.332;2022-08-20T09:29:35;26.10;99.90
39665;DHT22;26679;50.872;4.332;2022-08-20T09:34:29;26.00;98.00
39665;DHT22;26679;50.872;4.332;2022-08-20T09:36:55;25.30;95.90
39665;DHT22;26679;50.872;4.332;2022-08-20T09:39:20;24.60;95.90
39665;DHT22;26679;50.872;4.332;2022-08-20T09:41:46;24.00;96.50
39665;DHT22;26679;50.872;4.332;2022-08-20T09:44:11;24.30;96.90
39665;DHT22;26679;50.872;4.332;2022-08-20T09:46:37;25.50;95.10
39665;DHT22;26679;50.872;4.332;2022-08-20T09:49:02;26.40;92.00
39665;DHT22;26679;50.872;4.332;2022-08-20T09:51:28;26.70;91.10
39665;DHT22;26679;50.872;4.332;2022-08-20T09:53:53;27.30;89.80
39665;DHT22;26679;50.872;4.332;2022-08-20T09:56:19;27.60;87.20
39665;DHT22;26679;50.872;4.332;2022-08-20T09:58:46;27.80;83.00
39665;DHT22;26679;50.872;4.332;2022-08-20T10:01:13;27.60;82.90
39665;DHT22;26679;50.872;4.332;2022-08-20T10:03:42;28.00;82.90
39665;DHT22;26679;50.872;4.332;2022-08-20T10:06:08;28.50;81.60
39665;DHT22;26679;50.872;4.332;2022-08-20T10:08:35;28.70;79.80
39665;DHT22;26679;50.872;4.332;2022-08-20T10:11:00;28.60;80.60
39665;DHT22;26679;50.872;4.332;2022-08-20T10:13:26;28.70;81.00
39665;DHT22;26679;50.872;4.332;2022-08-20T10:15:51;28.80;80.50
39665;DHT22;26679;50.872;4.332;2022-08-20T10:18:17;29.00;79.20
39665;DHT22;26679;50.872;4.332;2022-08-20T10:20:42;28.60;81.40
39665;DHT22;26679;50.872;4.332;2022-08-20T10:23:08;28.90;82.30
39665;DHT22;26679;50.872;4.332;2022-08-20T10:25:33;29.30;80.00
39665;DHT22;26679;50.872;4.332;2022-08-20T10:27:59;28.80;79.10
39665;DHT22;26679;50.872;4.332;2022-08-20T10:30:24;29.60;79.70
39665;DHT22;26679;50.872;4.332;2022-08-20T10:32:50;30.40;79.30
39665;DHT22;26679;50.872;4.332;2022-08-20T10:35:15;31.10;77.20
39665;DHT22;26679;50.872;4.332;2022-08-20T10:37:41;31.00;76.30
39665;DHT22;26679;50.872;4.332;2022-08-20T10:40:07;30.50;77.80
39665;DHT22;26679;50.872;4.332;2022-08-20T10:42:32;30.50;76.80
39665;DHT22;26679;50.872;4.332;2022-08-20T10:44:58;30.10;77.80
39665;DHT22;26679;50.872;4.332;2022-08-20T10:47:24;29.70;77.10
39665;DHT22;26679;50.872;4.332;2022-08-20T10:49:51;29.90;75.60
39665;DHT22;26679;50.872;4.332;2022-08-20T10:52:17;30.30;75.80
39665;DHT22;26679;50.872;4.332;2022-08-20T10:54:43;31.10;75.50
39665;DHT22;26679;50.872;4.332;2022-08-20T10:57:12;30.50;74.70
39665;DHT22;26679;50.872;4.332;2022-08-20T10:59:38;29.70;76.40
39665;DHT22;26679;50.872;4.332;2022-08-20T11:02:04;29.30;77.10
39665;DHT22;26679;50.872;4.332;2022-08-20T11:04:30;28.30;78.10
39665;DHT22;26679;50.872;4.332;2022-08-20T11:06:55;27.70;78.80
39665;DHT22;26679;50.872;4.332;2022-08-20T11:09:21;27.40;79.10
39665;DHT22;26679;50.872;4.332;2022-08-20T11:11:46;27.40;79.00
39665;DHT22;26679;50.872;4.332;2022-08-20T11:14:12;27.40;79.00
39665;DHT22;26679;50.872;4.332;2022-08-20T11:16:37;27.80;78.30
39665;DHT22;26679;50.872;4.332;2022-08-20T11:19:03;28.40;77.10
39665;DHT22;26679;50.872;4.332;2022-08-20T11:21:28;29.10;76.20
39665;DHT22;26679;50.872;4.332;2022-08-20T11:23:54;28.90;75.90
39665;DHT22;26679;50.872;4.332;2022-08-20T11:26:22;28.40;76.40
39665;DHT22;26679;50.872;4.332;2022-08-20T11:28:49;27.60;77.80
39665;DHT22;26679;50.872;4.332;2022-08-20T11:31:14;27.40;78.60
39665;DHT22;26679;50.872;4.332;2022-08-20T11:33:40;27.50;78.60
39665;DHT22;26679;50.872;4.332;2022-08-20T11:36:05;27.40;78.90
39665;DHT22;26679;50.872;4.332;2022-08-20T11:38:31;27.50;79.10
39665;DHT22;26679;50.872;4.332;2022-08-20T11:40:57;27.00;79.80
39665;DHT22;26679;50.872;4.332;2022-08-20T11:43:22;26.70;80.10
39665;DHT22;26679;50.872;4.332;2022-08-20T11:45:49;27.30;79.70
39665;DHT22;26679;50.872;4.332;2022-08-20T11:48:15;28.60;77.70
39665;DHT22;26679;50.872;4.332;2022-08-20T11:50:41;30.10;76.40
39665;DHT22;26679;50.872;4.332;2022-08-20T11:53:06;31.40;74.40
39665;DHT22;26679;50.872;4.332;2022-08-20T11:55:32;32.40;72.10
39665;DHT22;26679;50.872;4.332;2022-08-20T11:57:57;33.10;70.40
39665;DHT22;26679;50.872;4.332;2022-08-20T12:00:23;33.40;68.70
39665;DHT22;26679;50.872;4.332;2022-08-20T12:02:49;33.30;68.80
39665;DHT22;26679;50.872;4.332;2022-08-20T12:05:16;32.10;69.70
39665;DHT22;26679;50.872;4.332;2022-08-20T12:07:42;31.00;70.90
39665;DHT22;26679;50.872;4.332;2022-08-20T12:10:08;30.80;71.00
39665;DHT22;26679;50.872;4.332;2022-08-20T12:12:34;31.10;70.90
39665;DHT22;26679;50.872;4.332;2022-08-20T12:14:59;31.10;71.00
39665;DHT22;26679;50.872;4.332;2022-08-20T12:17:26;30.90;70.40
39665;DHT22;26679;50.872;4.332;2022-08-20T12:19:53;30.00;71.50
39665;DHT22;26679;50.872;4.332;2022-08-20T12:22:18;29.80;71.90
39665;DHT22;26679;50.872;4.332;2022-08-20T12:24:44;29.30;72.00
39665;DHT22;26679;50.872;4.332;2022-08-20T12:27:17;28.60;72.50
39665;DHT22;26679;50.872;4.332;2022-08-20T12:29:44;28.80;73.00
39665;DHT22;26679;50.872;4.332;2022-08-20T12:32:10;28.80;72.30
39665;DHT22;26679;50.872;4.332;2022-08-20T12:34:38;28.50;72.90
39665;DHT22;26679;50.872;4.332;2022-08-20T12:37:06;28.60;73.30
39665;DHT22;26679;50.872;4.332;2022-08-20T12:39:32;29.80;70.20
39665;DHT22;26679;50.872;4.332;2022-08-20T12:41:59;30.60;69.90
39665;DHT22;26679;50.872;4.332;2022-08-20T12:44:27;30.90;69.20
39665;DHT22;26679;50.872;4.332;2022-08-20T12:47:03;31.30;68.30
39665;DHT22;26679;50.872;4.332;2022-08-20T12:49:29;32.10;68.60
39665;DHT22;26679;50.872;4.332;2022-08-20T12:51:54;33.10;66.00
39665;DHT22;26679;50.872;4.332;2022-08-20T12:54:20;33.00;66.20
39665;DHT22;26679;50.872;4.332;2022-08-20T12:56:45;33.30;66.40
39665;DHT22;26679;50.872;4.332;2022-08-20T12:59:12;33.70;65.90
39665;DHT22;26679;50.872;4.332;2022-08-20T13:01:38;33.70;65.20
39665;DHT22;26679;50.872;4.332;2022-08-20T13:04:03;33.70;65.60
39665;DHT22;26679;50.872;4.332;2022-08-20T13:06:28;33.90;65.30
39665;DHT22;26679;50.872;4.332;2022-08-20T13:08:54;33.80;65.40
39665;DHT22;26679;50.872;4.332;2022-08-20T13:11:19;32.80;65.50
39665;DHT22;26679;50.872;4.332;2022-08-20T13:13:45;31.90;66.60
39665;DHT22;26679;50.872;4.332;2022-08-20T13:16:12;32.50;66.80
39665;DHT22;26679;50.872;4.332;2022-08-20T13:18:38;33.20;65.10
39665;DHT22;26679;50.872;4.332;2022-08-20T13:21:04;32.90;64.70
39665;DHT22;26679;50.872;4.332;2022-08-20T13:23:29;32.00;65.70
39665;DHT22;26679;50.872;4.332;2022-08-20T13:25:55;32.00;66.70
39665;DHT22;26679;50.872;4.332;2022-08-20T13:28:20;32.50;65.80
39665;DHT22;26679;50.872;4.332;2022-08-20T13:30:46;33.00;66.00
39665;DHT22;26679;50.872;4.332;2022-08-20T13:33:11;33.40;65.40
39665;DHT22;26679;50.872;4.332;2022-08-20T13:35:37;33.90;64.80
39665;DHT22;26679;50.872;4.332;2022-08-20T13:38:02;33.70;64.30
39665;DHT22;26679;50.872;4.332;2022-08-20T13:40:28;33.60;64.90
39665;DHT22;26679;50.872;4.332;2022-08-20T13:42:53;33.50;64.90
39665;DHT22;26679;50.872;4.332;2022-08-20T13:45:19;34.00;64.50
39665;DHT22;26679;50.872;4.332;2022-08-20T13:47:44;34.50;64.20
39665;DHT22;26679;50.872;4.332;2022-08-20T13:52:36;33.40;64.50
39665;DHT22;26679;50.872;4.332;2022-08-20T13:55:02;32.40;65.10
39665;DHT22;26679;50.872;4.332;2022-08-20T13:57:28;31.60;65.90
39665;DHT22;26679;50.872;4.332;2022-08-20T13:59:54;32.20;66.20
39665;DHT22;26679;50.872;4.332;2022-08-20T14:02:20;32.80;65.50
39665;DHT22;26679;50.872;4.332;2022-08-20T14:04:47;32.60;65.40
39665;DHT22;26679;50.872;4.332;2022-08-20T14:07:14;32.80;65.10
39665;DHT22;26679;50.872;4.332;2022-08-20T14:09:40;33.20;65.50
39665;DHT22;26679;50.872;4.332;2022-08-20T14:12:06;33.40;65.10
39665;DHT22;26679;50.872;4.332;2022-08-20T14:14:32;33.50;64.30
39665;DHT22;26679;50.872;4.332;2022-08-20T14:16:57;33.70;64.50
39665;DHT22;26679;50.872;4.332;2022-08-20T14:19:23;33.80;63.80
39665;DHT22;26679;50.872;4.332;2022-08-20T14:21:48;32.80;64.30
39665;DHT22;26679;50.872;4.332;2022-08-20T14:24:14;32.00;65.30
39665;DHT22;26679;50.872;4.332;2022-08-20T14:26:39;31.50;65.90
39665;DHT22;26679;50.872;4.332;2022-08-20T14:29:04;32.20;65.40
39665;DHT22;26679;50.872;4.332;2022-08-20T14:31:30;32.00;65.50
39665;DHT22;26679;50.872;4.332;2022-08-20T14:33:55;31.40;65.60
39665;DHT22;26679;50.872;4.332;2022-08-20T14:36:21;30.60;66.30
39665;DHT22;26679;50.872;4.332;2022-08-20T14:38:46;30.00;67.20
39665;DHT22;26679;50.872;4.332;2022-08-20T14:41:12;30.20;67.90
39665;DHT22;26679;50.872;4.332;2022-08-20T14:43:37;30.60;66.70
39665;DHT22;26679;50.872;4.332;2022-08-20T14:46:03;30.70;66.80
39665;DHT22;26679;50.872;4.332;2022-08-20T14:48:28;30.40;67.00
39665;DHT22;26679;50.872;4.332;2022-08-20T14:50:54;30.00;67.60
39665;DHT22;26679;50.872;4.332;2022-08-20T14:53:20;30.10;68.30
39665;DHT22;26679;50.872;4.332;2022-08-20T14:55:46;31.40;67.50
39665;DHT22;26679;50.872;4.332;2022-08-20T14:58:12;32.30;66.10
39665;DHT22;26679;50.872;4.332;2022-08-20T15:00:39;32.90;65.30
39665;DHT22;26679;50.872;4.332;2022-08-20T15:03:05;32.60;65.30
39665;DHT22;26679;50.872;4.332;2022-08-20T15:05:31;33.10;64.90
39665;DHT22;26679;50.872;4.332;2022-08-20T15:07:57;32.70;65.10
39665;DHT22;26679;50.872;4.332;2022-08-20T15:10:29;32.20;65.20
39665;DHT22;26679;50.872;4.332;2022-08-20T15:12:56;32.50;65.30
39665;DHT22;26679;50.872;4.332;2022-08-20T15:15:22;32.60;65.20
39665;DHT22;26679;50.872;4.332;2022-08-20T15:17:49;31.80;65.50
39665;DHT22;26679;50.872;4.332;2022-08-20T15:20:15;30.90;66.10
39665;DHT22;26679;50.872;4.332;2022-08-20T15:22:42;30.30;67.00
39665;DHT22;26679;50.872;4.332;2022-08-20T15:25:07;30.30;67.40
39665;DHT22;26679;50.872;4.332;2022-08-20T15:27:33;30.80;66.70
39665;DHT22;26679;50.872;4.332;2022-08-20T15:30:03;31.40;66.20
39665;DHT22;26679;50.872;4.332;2022-08-20T15:32:29;31.30;65.80